createdAt,value
2022-10-21T00:00:15.470Z,13.35
2022-10-21T00:03:21.259Z,13.13
2022-10-21T00:06:25.598Z,11.45
2022-10-21T00:09:29.851Z,23.80
2022-10-21T00:12:35.005Z,33.22
2022-10-21T00:15:40.026Z,11.82
2022-10-21T00:18:45.891Z,10.90
2022-10-21T00:21:50.077Z,15.57
2022-10-21T00:24:54.169Z,11.90
2022-10-21T00:27:58.853Z,12.82
2022-10-21T00:31:03.826Z,10.57
2022-10-21T00:34:08.163Z,10.30
2022-10-21T00:37:12.978Z,13.05
2022-10-21T00:40:17.446Z,28.25
2022-10-21T00:43:22.264Z,23.98
2022-10-21T00:46:43.390Z,30.17
2022-10-21T00:49:57.957Z,18.23
2022-10-21T00:53:04.299Z,9.48
2022-10-21T00:56:15.564Z,10.07
2022-10-21T00:59:22.517Z,12.50
2022-10-21T01:02:27.433Z,17.40
2022-10-21T01:05:32.386Z,10.20
2022-10-21T01:08:37.195Z,18.02
2022-10-21T01:11:46.623Z,14.07
2022-10-21T01:15:08.973Z,21.15
2022-10-21T01:18:20.002Z,14.57
2022-10-21T01:21:38.610Z,19.08
2022-10-21T01:24:49.524Z,13.18
2022-10-21T01:28:09.225Z,14.75
2022-10-21T01:31:29.086Z,21.95
2022-10-21T01:34:55.919Z,13.38
2022-10-21T01:38:35.222Z,9.98
2022-10-21T01:42:00.471Z,15.27
2022-10-21T01:45:35.215Z,13.63
2022-10-21T01:48:46.251Z,13.95
2022-10-21T01:51:52.462Z,10.35
2022-10-21T01:55:05.708Z,32.67
2022-10-21T01:58:32.661Z,13.85
2022-10-21T02:01:40.253Z,7.38
2022-10-21T02:04:47.229Z,8.45
2022-10-21T02:07:51.666Z,9.10
2022-10-21T02:10:59.590Z,38.97
2022-10-21T02:14:16.847Z,26.33
2022-10-21T02:17:23.481Z,15.95
2022-10-21T02:20:32.627Z,25.75
2022-10-21T02:23:54.418Z,14.45
2022-10-21T02:26:59.041Z,23.42
2022-10-21T02:30:04.568Z,15.50
2022-10-21T02:36:27.789Z,8.23
2022-10-21T02:39:49.300Z,14.03
2022-10-21T02:43:01.212Z,13.05
2022-10-21T02:46:13.889Z,13.93
2022-10-21T02:49:18.484Z,13.07
2022-10-21T02:52:23.094Z,15.73
2022-10-21T02:55:27.665Z,16.95
2022-10-21T02:58:32.421Z,11.07
2022-10-21T03:01:36.954Z,12.27
2022-10-21T03:04:41.373Z,14.10
2022-10-21T03:07:45.856Z,9.18
2022-10-21T03:10:53.164Z,12.88
2022-10-21T03:13:58.155Z,10.68
2022-10-21T03:17:02.456Z,12.27
2022-10-21T03:20:07.184Z,9.15
2022-10-21T03:23:11.428Z,15.60
2022-10-21T03:26:15.844Z,15.82
2022-10-21T03:29:20.409Z,19.23
2022-10-21T03:32:24.645Z,8.15
2022-10-21T03:35:29.438Z,6.60
2022-10-21T03:38:33.628Z,9.85
2022-10-21T03:41:37.704Z,11.15
2022-10-21T03:44:42.292Z,8.05
2022-10-21T03:47:48.391Z,16.92
2022-10-21T03:50:52.807Z,35.42
2022-10-21T03:53:57.132Z,14.95
2022-10-21T03:57:01.361Z,15.73
2022-10-21T04:00:06.914Z,12.68
2022-10-21T04:03:16.391Z,12.75
2022-10-21T04:06:20.794Z,11.05
2022-10-21T04:09:25.178Z,17.42
2022-10-21T04:12:29.423Z,14.48
2022-10-21T04:15:33.639Z,35.50
2022-10-21T04:18:38.174Z,10.75
2022-10-21T04:21:42.645Z,8.98
2022-10-21T04:24:47.111Z,7.38
2022-10-21T04:27:51.278Z,6.72
2022-10-21T04:30:55.514Z,10.98
2022-10-21T04:34:00.298Z,9.80
2022-10-21T04:37:05.318Z,11.67
2022-10-21T04:40:10.786Z,20.92
2022-10-21T04:43:16.008Z,10.43
2022-10-21T04:46:21.721Z,12.15
2022-10-21T04:52:30.316Z,22.52
2022-10-21T04:55:35.154Z,21.48
2022-10-21T04:58:39.429Z,19.15
2022-10-21T05:01:44.000Z,17.17
2022-10-21T05:04:48.230Z,16.17
2022-10-21T05:07:52.724Z,13.95
2022-10-21T05:11:04.528Z,19.00
2022-10-21T05:14:08.913Z,13.55
2022-10-21T05:17:13.381Z,14.00
2022-10-21T05:20:18.318Z,16.35
2022-10-21T05:23:23.299Z,16.80
2022-10-21T05:26:29.874Z,26.52
2022-10-21T05:29:34.529Z,19.75
2022-10-21T05:32:40.092Z,16.13
2022-10-21T05:38:49.019Z,17.80
2022-10-21T05:41:53.190Z,19.77
2022-10-21T05:44:57.882Z,20.90
2022-10-21T05:48:02.588Z,25.75
2022-10-21T05:51:09.275Z,23.37
2022-10-21T05:54:13.687Z,32.38
2022-10-21T05:57:18.312Z,48.28
2022-10-21T06:00:22.567Z,37.10
2022-10-21T06:03:31.076Z,46.30
2022-10-21T06:06:35.553Z,55.28
2022-10-21T06:09:40.200Z,34.17
2022-10-21T06:12:45.458Z,19.85
2022-10-21T06:15:51.127Z,20.58
2022-10-21T06:18:55.867Z,20.52
2022-10-21T06:22:00.437Z,28.25
2022-10-21T06:25:05.245Z,44.20
2022-10-21T06:28:09.736Z,46.35
2022-10-21T06:31:17.022Z,41.35
2022-10-21T06:34:21.631Z,42.78
2022-10-21T06:37:26.299Z,35.00
2022-10-21T06:40:30.704Z,34.40
2022-10-21T06:43:35.570Z,34.80
2022-10-21T06:46:40.087Z,29.60
2022-10-21T06:49:44.678Z,28.05
2022-10-21T06:52:52.122Z,30.27
2022-10-21T06:56:11.041Z,27.10
2022-10-21T06:59:15.607Z,31.58
2022-10-21T07:02:20.349Z,41.80
2022-10-21T07:05:24.721Z,26.60
2022-10-21T07:08:46.337Z,28.13
2022-10-21T07:11:51.645Z,24.75
2022-10-21T07:14:56.426Z,31.23
2022-10-21T07:18:01.909Z,29.27
2022-10-21T07:21:08.285Z,31.27
2022-10-21T07:24:16.289Z,31.63
2022-10-21T07:27:21.902Z,27.25
2022-10-21T07:30:26.232Z,55.80
2022-10-21T07:33:30.679Z,49.13
2022-10-21T07:36:38.255Z,29.42
2022-10-21T07:39:42.493Z,39.28
2022-10-21T07:42:47.019Z,36.00
2022-10-21T07:45:51.274Z,145.32
2022-10-21T07:48:57.230Z,195.48
2022-10-21T07:52:01.819Z,52.08
2022-10-21T07:55:06.478Z,60.38
2022-10-21T07:58:11.329Z,74.68
2022-10-21T08:01:16.953Z,43.03
2022-10-21T08:07:27.623Z,32.20
2022-10-21T08:10:33.178Z,31.20
2022-10-21T08:13:41.588Z,27.15
2022-10-21T08:16:46.191Z,31.90
2022-10-21T08:19:51.248Z,29.40
2022-10-21T08:22:55.646Z,21.45
2022-10-21T08:26:04.337Z,26.35
2022-10-21T08:29:09.294Z,35.30
2022-10-21T08:32:13.736Z,30.15
2022-10-21T08:35:18.657Z,56.15
2022-10-21T08:38:23.320Z,27.87
2022-10-21T08:41:31.144Z,25.70
2022-10-21T08:45:00.857Z,45.90
2022-10-21T08:48:14.141Z,120.68
2022-10-21T08:51:39.074Z,97.10
2022-10-21T08:54:52.203Z,60.58
2022-10-21T08:57:56.698Z,51.25
2022-10-21T09:01:32.621Z,28.00
2022-10-21T09:04:53.594Z,42.78
2022-10-21T09:08:27.996Z,41.15
2022-10-21T09:11:48.601Z,33.10
2022-10-21T09:15:17.140Z,24.52
2022-10-21T09:18:39.742Z,26.60
2022-10-21T09:22:29.996Z,26.77
2022-10-21T09:25:36.160Z,16.13
2022-10-21T09:28:41.058Z,18.33
2022-10-21T09:31:48.776Z,27.02
2022-10-21T09:35:10.946Z,26.98
2022-10-21T09:38:26.976Z,22.95
2022-10-21T09:41:40.101Z,25.83
2022-10-21T09:44:49.542Z,36.45
2022-10-21T09:48:00.174Z,28.92
2022-10-21T09:51:15.592Z,21.95
2022-10-21T09:54:23.847Z,27.02
2022-10-21T09:57:42.570Z,20.45
2022-10-21T10:00:51.854Z,22.52
2022-10-21T10:03:56.581Z,13.88
2022-10-21T10:07:38.524Z,16.30
2022-10-21T10:10:43.127Z,12.70
2022-10-21T10:13:53.566Z,15.88
2022-10-21T10:17:20.588Z,12.55
2022-10-21T10:20:25.220Z,12.05
2022-10-21T10:23:29.838Z,13.05
2022-10-21T10:26:43.354Z,19.70
2022-10-21T10:30:00.895Z,13.07
2022-10-21T10:33:17.806Z,19.83
2022-10-21T10:36:38.028Z,14.10
2022-10-21T10:39:46.689Z,16.00
2022-10-21T10:43:13.074Z,20.65
2022-10-21T10:49:44.873Z,11.02
2022-10-21T10:52:49.531Z,10.23
2022-10-21T10:56:17.577Z,11.18
2022-10-21T10:59:30.441Z,12.13
2022-10-21T11:02:57.043Z,7.78
2022-10-21T11:09:35.128Z,12.48
2022-10-21T11:12:39.554Z,14.63
2022-10-21T11:15:59.789Z,9.95
2022-10-21T11:19:36.712Z,9.77
2022-10-21T11:23:10.609Z,11.93
2022-10-21T11:26:37.685Z,10.85
2022-10-21T11:30:10.456Z,15.77
2022-10-21T11:33:47.226Z,12.43
2022-10-21T11:37:16.007Z,9.25
2022-10-21T11:40:35.279Z,9.45
2022-10-21T11:43:53.558Z,11.73
2022-10-21T11:47:21.448Z,10.40
2022-10-21T11:50:33.443Z,9.65
2022-10-21T11:53:40.483Z,9.65
2022-10-21T11:57:09.216Z,12.65
2022-10-21T12:00:21.487Z,12.93
2022-10-21T12:03:49.725Z,16.25
2022-10-21T12:07:14.217Z,12.60
2022-10-21T12:10:48.595Z,11.40
2022-10-21T12:14:05.014Z,8.68
2022-10-21T12:17:16.891Z,11.75
2022-10-21T12:20:27.232Z,10.40
2022-10-21T12:23:37.073Z,15.32
2022-10-21T12:26:49.733Z,12.70
2022-10-21T12:30:24.847Z,22.38
2022-10-21T12:33:44.603Z,24.70
2022-10-21T12:36:51.989Z,26.75
2022-10-21T12:40:14.423Z,31.17
2022-10-21T12:43:29.300Z,36.33
2022-10-21T12:46:44.837Z,31.60
2022-10-21T12:50:11.374Z,38.72
2022-10-21T12:53:43.832Z,35.28
2022-10-21T12:57:23.600Z,38.42
2022-10-21T13:00:31.332Z,39.80
2022-10-21T13:03:53.015Z,32.97
2022-10-21T13:06:59.663Z,42.60
2022-10-21T13:10:06.973Z,41.05
2022-10-21T13:13:30.972Z,33.60
2022-10-21T13:16:41.758Z,20.73
2022-10-21T13:19:47.239Z,29.50
2022-10-21T13:23:03.372Z,27.35
2022-10-21T13:26:19.515Z,17.20
2022-10-21T13:29:39.529Z,22.15
2022-10-21T13:32:43.827Z,23.25
2022-10-21T13:35:51.485Z,24.98
2022-10-21T13:38:58.889Z,25.77
2022-10-21T13:42:15.686Z,28.30
2022-10-21T13:45:33.355Z,34.67
2022-10-21T13:51:48.360Z,29.85
2022-10-21T13:55:03.208Z,32.70
2022-10-21T13:58:16.928Z,23.53
2022-10-21T14:01:27.332Z,28.35
2022-10-21T14:04:34.568Z,28.80
2022-10-21T14:07:42.011Z,27.35
2022-10-21T14:10:48.865Z,22.45
2022-10-21T14:13:53.238Z,28.10
2022-10-21T14:17:01.490Z,23.17
2022-10-21T14:20:34.479Z,28.40
2022-10-21T14:23:39.895Z,27.50
2022-10-21T14:26:47.045Z,28.73
2022-10-21T14:29:51.822Z,24.13
2022-10-21T14:33:07.017Z,27.55
2022-10-21T14:36:25.736Z,25.20
2022-10-21T14:39:31.586Z,30.25
2022-10-21T14:45:47.022Z,27.98
2022-10-21T14:49:00.867Z,30.45
2022-10-21T14:52:08.343Z,30.25
2022-10-21T14:55:17.752Z,41.97
2022-10-21T14:58:27.145Z,37.80
2022-10-21T15:01:32.580Z,34.08
2022-10-21T15:04:52.509Z,27.25
2022-10-21T15:08:16.822Z,27.45
2022-10-21T15:11:24.203Z,27.67
2022-10-21T15:14:31.452Z,121.45
2022-10-21T15:17:35.975Z,45.88
2022-10-21T15:20:40.741Z,247.43
2022-10-21T15:23:51.983Z,134.77
2022-10-21T15:27:00.725Z,61.17
2022-10-21T15:30:20.317Z,39.90
2022-10-21T15:33:24.711Z,42.30
2022-10-21T15:36:28.983Z,25.98
2022-10-21T15:39:33.123Z,28.80
2022-10-21T15:42:37.593Z,28.10
2022-10-21T15:45:43.855Z,27.02
2022-10-21T15:48:48.352Z,23.77
2022-10-21T15:51:52.818Z,28.80
2022-10-21T15:54:57.890Z,27.35
2022-10-21T15:58:02.339Z,53.45
2022-10-21T16:01:12.823Z,100.03
2022-10-21T16:04:18.372Z,31.55
2022-10-21T16:07:37.783Z,27.73
2022-10-21T16:10:49.930Z,28.70
2022-10-21T16:13:54.233Z,31.75
2022-10-21T16:17:01.571Z,35.60
2022-10-21T16:20:06.456Z,37.35
2022-10-21T16:23:12.450Z,34.90
2022-10-21T16:26:22.874Z,39.95
2022-10-21T16:29:27.191Z,41.35
2022-10-21T16:32:31.653Z,32.13
2022-10-21T16:35:36.276Z,34.58
2022-10-21T16:38:42.388Z,44.17
2022-10-21T16:41:46.825Z,33.85
2022-10-21T16:44:52.148Z,63.50
2022-10-21T16:48:00.506Z,43.22
2022-10-21T16:51:04.862Z,36.20
2022-10-21T16:54:09.588Z,38.67
2022-10-21T16:57:13.795Z,42.90
2022-10-21T17:00:19.930Z,36.88
2022-10-21T17:03:24.631Z,32.55
2022-10-21T17:06:29.218Z,39.22
2022-10-21T17:09:33.826Z,34.78
2022-10-21T17:12:38.516Z,35.25
2022-10-21T17:15:42.717Z,36.05
2022-10-21T17:18:47.675Z,55.95
2022-10-21T17:21:51.898Z,42.93
2022-10-21T17:24:56.347Z,41.15
2022-10-21T17:28:00.970Z,35.42
2022-10-21T17:31:05.285Z,38.78
2022-10-21T17:34:24.094Z,33.55
2022-10-21T17:37:28.618Z,36.28
2022-10-21T17:40:33.202Z,34.28
2022-10-21T17:43:37.816Z,33.13
2022-10-21T17:46:42.158Z,32.05
2022-10-21T17:49:46.580Z,33.10
2022-10-21T17:52:54.395Z,26.65
2022-10-21T17:56:01.643Z,25.70
2022-10-21T17:59:06.394Z,25.67
2022-10-21T18:02:11.570Z,18.90
2022-10-21T18:08:54.786Z,31.85
2022-10-21T18:12:03.394Z,30.35
2022-10-21T18:15:08.983Z,29.65
2022-10-21T18:18:13.846Z,30.60
2022-10-21T18:21:23.693Z,36.65
2022-10-21T18:24:29.308Z,36.55
2022-10-21T18:27:33.742Z,32.75
2022-10-21T18:30:43.558Z,33.85
2022-10-21T18:33:48.659Z,34.28
2022-10-21T18:40:02.078Z,34.78
2022-10-21T18:43:07.163Z,31.58
2022-10-21T18:46:11.298Z,36.08
2022-10-21T18:49:19.301Z,33.30
2022-10-21T18:52:23.833Z,35.03
2022-10-21T18:55:28.401Z,30.43
2022-10-21T18:58:36.238Z,29.88
2022-10-21T19:01:41.219Z,28.45
2022-10-21T19:04:45.675Z,28.08
2022-10-21T19:07:50.622Z,24.95
2022-10-21T19:10:54.678Z,22.80
2022-10-21T19:13:59.291Z,23.65
2022-10-21T19:17:03.590Z,24.42
2022-10-21T19:20:09.084Z,20.42
2022-10-21T19:23:13.561Z,22.13
2022-10-21T19:26:21.073Z,23.05
2022-10-21T19:29:27.936Z,24.27
2022-10-21T19:32:33.708Z,21.00
2022-10-21T19:35:38.591Z,21.77
2022-10-21T19:38:44.803Z,21.63
2022-10-21T19:41:49.341Z,20.98
2022-10-21T19:44:53.924Z,19.80
2022-10-21T19:47:58.589Z,22.92
2022-10-21T19:51:04.432Z,23.63
2022-10-21T19:54:10.608Z,25.27
2022-10-21T19:57:14.828Z,24.52
2022-10-21T20:00:19.313Z,32.75
2022-10-21T20:03:23.974Z,24.73
2022-10-21T20:06:33.905Z,29.17
2022-10-21T20:09:38.976Z,26.80
2022-10-21T20:12:43.250Z,27.48
2022-10-21T20:15:51.191Z,27.67
2022-10-21T20:18:56.422Z,24.75
2022-10-21T20:22:00.962Z,21.63
2022-10-21T20:25:05.563Z,21.60
2022-10-21T20:28:10.079Z,23.55
2022-10-21T20:31:16.998Z,24.42
2022-10-21T20:34:21.402Z,26.40
2022-10-21T20:37:25.844Z,23.42
2022-10-21T20:40:30.175Z,24.10
2022-10-21T20:43:39.552Z,22.77
2022-10-21T20:46:44.581Z,24.60
2022-10-21T20:49:48.992Z,22.88
2022-10-21T20:52:53.281Z,23.50
2022-10-21T20:55:57.730Z,23.73
2022-10-21T20:59:03.081Z,26.60
2022-10-21T21:02:07.812Z,29.42
2022-10-21T21:05:12.351Z,22.25
2022-10-21T21:08:17.246Z,23.80
2022-10-21T21:11:22.420Z,21.42
2022-10-21T21:14:26.725Z,20.17
2022-10-21T21:17:30.990Z,22.60
2022-10-21T21:20:35.505Z,19.55
2022-10-21T21:23:41.792Z,22.00
2022-10-21T21:26:46.665Z,19.92
2022-10-21T21:29:51.246Z,22.65
2022-10-21T21:32:55.835Z,18.10
2022-10-21T21:36:00.364Z,18.52
2022-10-21T21:39:05.746Z,62.58
2022-10-21T21:46:41.883Z,22.10
2022-10-21T21:49:46.329Z,18.67
2022-10-21T21:52:54.082Z,19.90
2022-10-21T21:56:03.454Z,26.67
2022-10-21T21:59:08.166Z,32.90
2022-10-21T22:02:14.747Z,34.95
2022-10-21T22:05:23.599Z,36.80
2022-10-21T22:08:30.646Z,28.88
2022-10-21T22:11:41.427Z,30.05
2022-10-21T22:14:48.695Z,18.10
2022-10-21T22:17:53.970Z,16.67
2022-10-21T22:24:15.327Z,20.40
2022-10-21T22:27:20.034Z,18.65
2022-10-21T22:30:24.402Z,15.98
2022-10-21T22:33:29.349Z,18.40
2022-10-21T22:36:35.482Z,21.98
2022-10-21T22:39:39.903Z,13.93
2022-10-21T22:45:57.647Z,18.00
2022-10-21T22:49:17.566Z,18.25
2022-10-21T22:52:25.136Z,21.98
2022-10-21T22:55:35.589Z,16.30
2022-10-21T22:58:41.388Z,20.20
2022-10-21T23:04:52.543Z,13.70
2022-10-21T23:07:58.842Z,12.63
2022-10-21T23:11:03.010Z,11.73
2022-10-21T23:14:08.714Z,12.82
2022-10-21T23:17:13.306Z,12.57
2022-10-21T23:20:17.821Z,13.98
2022-10-21T23:23:21.936Z,12.68
2022-10-21T23:26:26.856Z,12.82
2022-10-21T23:29:37.447Z,13.88
2022-10-21T23:32:42.662Z,12.98
2022-10-21T23:35:52.094Z,13.23
2022-10-21T23:38:57.667Z,13.32
2022-10-21T23:42:01.706Z,15.27
2022-10-21T23:45:08.405Z,12.43
2022-10-21T23:48:15.713Z,14.05
2022-10-21T23:51:20.207Z,12.55
2022-10-21T23:54:24.744Z,14.00
2022-10-21T23:57:29.395Z,12.15
